sensor_id;sensor_type;location;lat;lon;timestamp;P1;durP1;ratioP1;P2;durP2;ratioP2
43891;SDS011;29555;45.350;5.578;2023-05-18T00:02:06;2.30;;;1.08;;
43891;SDS011;29555;45.350;5.578;2023-05-18T00:04:32;0.85;;;0.85;;
43891;SDS011;29555;45.350;5.578;2023-05-18T00:06:58;2.45;;;1.45;;
43891;SDS011;29555;45.350;5.578;2023-05-18T00:09:31;2.22;;;1.30;;
43891;SDS011;29555;45.350;5.578;2023-05-18T00:11:58;1.23;;;1.13;;
43891;SDS011;29555;45.350;5.578;2023-05-18T00:14:24;1.60;;;1.50;;
43891;SDS011;29555;45.350;5.578;2023-05-18T00:16:50;0.98;;;0.95;;
43891;SDS011;29555;45.350;5.578;2023-05-18T00:19:19;1.45;;;1.30;;
43891;SDS011;29555;45.350;5.578;2023-05-18T00:21:48;5.32;;;1.17;;
43891;SDS011;29555;45.350;5.578;2023-05-18T00:24:14;1.15;;;1.02;;
43891;SDS011;29555;45.350;5.578;2023-05-18T00:26:41;1.80;;;1.00;;
43891;SDS011;29555;45.350;5.578;2023-05-18T00:29:07;1.52;;;1.10;;
43891;SDS011;29555;45.350;5.578;2023-05-18T00:31:33;1.67;;;1.20;;
43891;SDS011;29555;45.350;5.578;2023-05-18T00:34:10;3.22;;;1.75;;
43891;SDS011;29555;45.350;5.578;2023-05-18T00:36:37;4.40;;;2.03;;
43891;SDS011;29555;45.350;5.578;2023-05-18T00:39:03;2.45;;;1.23;;
43891;SDS011;29555;45.350;5.578;2023-05-18T00:41:30;2.60;;;1.67;;
43891;SDS011;29555;45.350;5.578;2023-05-18T00:43:56;1.35;;;1.17;;
43891;SDS011;29555;45.350;5.578;2023-05-18T00:46:22;1.25;;;0.88;;
43891;SDS011;29555;45.350;5.578;2023-05-18T00:48:48;3.25;;;2.33;;
43891;SDS011;29555;45.350;5.578;2023-05-18T00:51:14;2.53;;;1.77;;
43891;SDS011;29555;45.350;5.578;2023-05-18T00:53:41;1.58;;;1.17;;
43891;SDS011;29555;45.350;5.578;2023-05-18T00:56:07;1.75;;;1.65;;
43891;SDS011;29555;45.350;5.578;2023-05-18T00:58:34;1.38;;;1.08;;
43891;SDS011;29555;45.350;5.578;2023-05-18T01:00:59;2.53;;;1.45;;
43891;SDS011;29555;45.350;5.578;2023-05-18T01:03:27;3.50;;;1.55;;
43891;SDS011;29555;45.350;5.578;2023-05-18T01:05:54;1.63;;;1.52;;
43891;SDS011;29555;45.350;5.578;2023-05-18T01:08:22;3.88;;;1.60;;
43891;SDS011;29555;45.350;5.578;2023-05-18T01:10:53;6.55;;;1.55;;
43891;SDS011;29555;45.350;5.578;2023-05-18T01:16:19;2.85;;;1.90;;
43891;SDS011;29555;45.350;5.578;2023-05-18T01:18:53;4.32;;;1.20;;
43891;SDS011;29555;45.350;5.578;2023-05-18T01:24:25;5.78;;;1.50;;
43891;SDS011;29555;45.350;5.578;2023-05-18T01:26:58;1.23;;;0.95;;
43891;SDS011;29555;45.350;5.578;2023-05-18T01:29:24;5.97;;;1.85;;
43891;SDS011;29555;45.350;5.578;2023-05-18T01:31:53;4.57;;;1.60;;
43891;SDS011;29555;45.350;5.578;2023-05-18T01:34:18;1.42;;;1.13;;
43891;SDS011;29555;45.350;5.578;2023-05-18T01:36:44;1.30;;;1.10;;
43891;SDS011;29555;45.350;5.578;2023-05-18T01:39:09;1.42;;;1.33;;
43891;SDS011;29555;45.350;5.578;2023-05-18T01:41:36;3.05;;;1.58;;
43891;SDS011;29555;45.350;5.578;2023-05-18T01:44:08;6.43;;;1.92;;
43891;SDS011;29555;45.350;5.578;2023-05-18T01:49:31;2.33;;;1.60;;
43891;SDS011;29555;45.350;5.578;2023-05-18T01:52:10;1.20;;;1.10;;
43891;SDS011;29555;45.350;5.578;2023-05-18T01:54:41;1.48;;;1.38;;
43891;SDS011;29555;45.350;5.578;2023-05-18T01:57:09;2.67;;;1.02;;
43891;SDS011;29555;45.350;5.578;2023-05-18T01:59:35;4.25;;;1.27;;
43891;SDS011;29555;45.350;5.578;2023-05-18T02:02:02;13.85;;;1.63;;
43891;SDS011;29555;45.350;5.578;2023-05-18T02:04:27;3.22;;;1.27;;
43891;SDS011;29555;45.350;5.578;2023-05-18T02:06:53;7.47;;;2.25;;
43891;SDS011;29555;45.350;5.578;2023-05-18T02:09:19;2.17;;;1.35;;
43891;SDS011;29555;45.350;5.578;2023-05-18T02:11:45;2.97;;;1.45;;
43891;SDS011;29555;45.350;5.578;2023-05-18T02:14:11;9.25;;;1.73;;
43891;SDS011;29555;45.350;5.578;2023-05-18T02:16:37;2.25;;;0.68;;
43891;SDS011;29555;45.350;5.578;2023-05-18T02:19:02;4.75;;;1.95;;
43891;SDS011;29555;45.350;5.578;2023-05-18T02:21:28;1.88;;;1.70;;
43891;SDS011;29555;45.350;5.578;2023-05-18T02:23:54;4.07;;;2.30;;
43891;SDS011;29555;45.350;5.578;2023-05-18T02:26:19;8.00;;;2.10;;
43891;SDS011;29555;45.350;5.578;2023-05-18T02:28:45;2.28;;;2.08;;
43891;SDS011;29555;45.350;5.578;2023-05-18T02:31:10;3.92;;;1.65;;
43891;SDS011;29555;45.350;5.578;2023-05-18T02:33:36;2.53;;;1.83;;
43891;SDS011;29555;45.350;5.578;2023-05-18T02:36:07;14.90;;;3.28;;
43891;SDS011;29555;45.350;5.578;2023-05-18T02:38:40;13.23;;;2.15;;
43891;SDS011;29555;45.350;5.578;2023-05-18T02:41:07;9.25;;;3.08;;
43891;SDS011;29555;45.350;5.578;2023-05-18T02:43:33;3.47;;;1.63;;
43891;SDS011;29555;45.350;5.578;2023-05-18T02:45:59;2.13;;;1.73;;
43891;SDS011;29555;45.350;5.578;2023-05-18T02:48:24;2.45;;;2.05;;
43891;SDS011;29555;45.350;5.578;2023-05-18T02:50:50;2.33;;;2.13;;
43891;SDS011;29555;45.350;5.578;2023-05-18T02:53:15;2.17;;;1.75;;
43891;SDS011;29555;45.350;5.578;2023-05-18T02:55:41;4.15;;;2.38;;
43891;SDS011;29555;45.350;5.578;2023-05-18T02:58:07;3.03;;;2.72;;
43891;SDS011;29555;45.350;5.578;2023-05-18T03:00:33;4.10;;;2.50;;
43891;SDS011;29555;45.350;5.578;2023-05-18T03:02:58;6.47;;;2.58;;
43891;SDS011;29555;45.350;5.578;2023-05-18T03:05:27;4.05;;;2.53;;
43891;SDS011;29555;45.350;5.578;2023-05-18T03:07:52;2.78;;;2.08;;
43891;SDS011;29555;45.350;5.578;2023-05-18T03:10:18;4.40;;;2.47;;
43891;SDS011;29555;45.350;5.578;2023-05-18T03:12:45;15.07;;;2.85;;
43891;SDS011;29555;45.350;5.578;2023-05-18T03:15:11;5.90;;;3.17;;
43891;SDS011;29555;45.350;5.578;2023-05-18T03:17:38;7.70;;;2.45;;
43891;SDS011;29555;45.350;5.578;2023-05-18T03:20:06;2.40;;;1.88;;
43891;SDS011;29555;45.350;5.578;2023-05-18T03:22:34;3.67;;;2.00;;
43891;SDS011;29555;45.350;5.578;2023-05-18T03:24:59;4.50;;;3.65;;
43891;SDS011;29555;45.350;5.578;2023-05-18T03:27:26;7.57;;;2.38;;
43891;SDS011;29555;45.350;5.578;2023-05-18T03:29:51;6.28;;;2.65;;
43891;SDS011;29555;45.350;5.578;2023-05-18T03:32:18;8.13;;;2.80;;
43891;SDS011;29555;45.350;5.578;2023-05-18T03:34:44;6.20;;;3.22;;
43891;SDS011;29555;45.350;5.578;2023-05-18T03:37:11;4.07;;;2.45;;
43891;SDS011;29555;45.350;5.578;2023-05-18T03:39:37;5.65;;;3.95;;
43891;SDS011;29555;45.350;5.578;2023-05-18T03:42:02;4.53;;;2.83;;
43891;SDS011;29555;45.350;5.578;2023-05-18T03:44:28;11.77;;;4.05;;
43891;SDS011;29555;45.350;5.578;2023-05-18T03:46:53;4.72;;;2.50;;
43891;SDS011;29555;45.350;5.578;2023-05-18T03:49:19;5.82;;;4.18;;
43891;SDS011;29555;45.350;5.578;2023-05-18T03:51:44;8.75;;;3.72;;
43891;SDS011;29555;45.350;5.578;2023-05-18T03:54:09;8.13;;;3.58;;
43891;SDS011;29555;45.350;5.578;2023-05-18T03:56:35;7.63;;;3.08;;
43891;SDS011;29555;45.350;5.578;2023-05-18T03:59:00;4.45;;;3.42;;
43891;SDS011;29555;45.350;5.578;2023-05-18T04:01:27;5.68;;;2.88;;
43891;SDS011;29555;45.350;5.578;2023-05-18T04:03:54;4.43;;;3.17;;
43891;SDS011;29555;45.350;5.578;2023-05-18T04:06:20;5.05;;;3.55;;
43891;SDS011;29555;45.350;5.578;2023-05-18T04:08:47;6.07;;;3.75;;
43891;SDS011;29555;45.350;5.578;2023-05-18T04:11:13;7.78;;;3.35;;
43891;SDS011;29555;45.350;5.578;2023-05-18T04:13:38;4.60;;;2.90;;
43891;SDS011;29555;45.350;5.578;2023-05-18T04:16:04;3.90;;;3.50;;
43891;SDS011;29555;45.350;5.578;2023-05-18T04:18:29;4.25;;;3.35;;
43891;SDS011;29555;45.350;5.578;2023-05-18T04:20:56;5.13;;;3.83;;
43891;SDS011;29555;45.350;5.578;2023-05-18T04:23:21;4.57;;;3.50;;
43891;SDS011;29555;45.350;5.578;2023-05-18T04:25:47;5.20;;;2.60;;
43891;SDS011;29555;45.350;5.578;2023-05-18T04:28:13;4.50;;;2.97;;
43891;SDS011;29555;45.350;5.578;2023-05-18T04:30:38;5.60;;;2.90;;
43891;SDS011;29555;45.350;5.578;2023-05-18T04:33:04;6.82;;;4.15;;
43891;SDS011;29555;45.350;5.578;2023-05-18T04:35:30;4.38;;;3.20;;
43891;SDS011;29555;45.350;5.578;2023-05-18T04:37:56;5.07;;;3.60;;
43891;SDS011;29555;45.350;5.578;2023-05-18T04:40:21;13.80;;;4.15;;
43891;SDS011;29555;45.350;5.578;2023-05-18T04:42:49;5.20;;;3.60;;
43891;SDS011;29555;45.350;5.578;2023-05-18T04:45:18;5.13;;;3.08;;
43891;SDS011;29555;45.350;5.578;2023-05-18T04:47:44;3.50;;;3.20;;
43891;SDS011;29555;45.350;5.578;2023-05-18T04:50:16;15.13;;;4.30;;
43891;SDS011;29555;45.350;5.578;2023-05-18T04:52:42;5.15;;;3.40;;
43891;SDS011;29555;45.350;5.578;2023-05-18T04:55:16;4.28;;;3.42;;
43891;SDS011;29555;45.350;5.578;2023-05-18T04:57:47;5.75;;;4.18;;
43891;SDS011;29555;45.350;5.578;2023-05-18T05:00:17;5.90;;;2.92;;
43891;SDS011;29555;45.350;5.578;2023-05-18T05:02:44;7.65;;;2.65;;
43891;SDS011;29555;45.350;5.578;2023-05-18T05:05:09;6.90;;;3.45;;
43891;SDS011;29555;45.350;5.578;2023-05-18T05:07:34;7.88;;;4.00;;
43891;SDS011;29555;45.350;5.578;2023-05-18T05:10:00;6.53;;;3.83;;
43891;SDS011;29555;45.350;5.578;2023-05-18T05:12:26;7.40;;;2.95;;
43891;SDS011;29555;45.350;5.578;2023-05-18T05:14:51;6.95;;;3.33;;
43891;SDS011;29555;45.350;5.578;2023-05-18T05:17:16;3.85;;;3.10;;
43891;SDS011;29555;45.350;5.578;2023-05-18T05:19:42;9.00;;;4.05;;
43891;SDS011;29555;45.350;5.578;2023-05-18T05:22:07;5.97;;;3.60;;
43891;SDS011;29555;45.350;5.578;2023-05-18T05:24:33;5.80;;;3.80;;
43891;SDS011;29555;45.350;5.578;2023-05-18T05:26:58;6.22;;;3.75;;
43891;SDS011;29555;45.350;5.578;2023-05-18T05:29:23;7.68;;;3.95;;
43891;SDS011;29555;45.350;5.578;2023-05-18T05:31:50;4.00;;;2.65;;
43891;SDS011;29555;45.350;5.578;2023-05-18T05:34:15;3.67;;;2.95;;
43891;SDS011;29555;45.350;5.578;2023-05-18T05:36:41;8.23;;;3.58;;
43891;SDS011;29555;45.350;5.578;2023-05-18T05:39:06;6.88;;;3.47;;
43891;SDS011;29555;45.350;5.578;2023-05-18T05:41:32;8.05;;;4.68;;
43891;SDS011;29555;45.350;5.578;2023-05-18T05:43:57;5.57;;;3.85;;
43891;SDS011;29555;45.350;5.578;2023-05-18T05:46:23;6.35;;;3.25;;
43891;SDS011;29555;45.350;5.578;2023-05-18T05:48:48;10.93;;;4.65;;
43891;SDS011;29555;45.350;5.578;2023-05-18T05:51:14;6.18;;;4.70;;
43891;SDS011;29555;45.350;5.578;2023-05-18T05:53:39;3.85;;;3.22;;
43891;SDS011;29555;45.350;5.578;2023-05-18T05:56:05;7.57;;;4.22;;
43891;SDS011;29555;45.350;5.578;2023-05-18T05:58:31;4.50;;;3.85;;
43891;SDS011;29555;45.350;5.578;2023-05-18T06:00:57;5.97;;;4.20;;
43891;SDS011;29555;45.350;5.578;2023-05-18T06:03:22;7.53;;;4.85;;
43891;SDS011;29555;45.350;5.578;2023-05-18T06:05:48;7.65;;;4.43;;
43891;SDS011;29555;45.350;5.578;2023-05-18T06:08:13;7.43;;;4.90;;
43891;SDS011;29555;45.350;5.578;2023-05-18T06:10:39;7.78;;;3.55;;
43891;SDS011;29555;45.350;5.578;2023-05-18T06:13:05;6.55;;;3.28;;
43891;SDS011;29555;45.350;5.578;2023-05-18T06:15:31;7.80;;;4.63;;
43891;SDS011;29555;45.350;5.578;2023-05-18T06:17:56;9.55;;;3.88;;
43891;SDS011;29555;45.350;5.578;2023-05-18T06:20:21;8.13;;;4.25;;
43891;SDS011;29555;45.350;5.578;2023-05-18T06:22:47;5.47;;;3.45;;
43891;SDS011;29555;45.350;5.578;2023-05-18T06:25:12;7.82;;;3.88;;
43891;SDS011;29555;45.350;5.578;2023-05-18T06:27:38;5.07;;;3.22;;
43891;SDS011;29555;45.350;5.578;2023-05-18T06:30:03;7.93;;;5.10;;
43891;SDS011;29555;45.350;5.578;2023-05-18T06:32:29;9.02;;;3.35;;
43891;SDS011;29555;45.350;5.578;2023-05-18T06:34:55;9.85;;;4.07;;
43891;SDS011;29555;45.350;5.578;2023-05-18T06:37:20;5.53;;;4.00;;
43891;SDS011;29555;45.350;5.578;2023-05-18T06:39:46;5.80;;;3.72;;
43891;SDS011;29555;45.350;5.578;2023-05-18T06:42:11;6.72;;;3.85;;
43891;SDS011;29555;45.350;5.578;2023-05-18T06:44:36;9.82;;;5.18;;
43891;SDS011;29555;45.350;5.578;2023-05-18T06:47:02;4.43;;;3.55;;
43891;SDS011;29555;45.350;5.578;2023-05-18T06:49:27;8.40;;;4.85;;
43891;SDS011;29555;45.350;5.578;2023-05-18T06:51:53;4.90;;;3.47;;
43891;SDS011;29555;45.350;5.578;2023-05-18T06:54:18;8.75;;;4.65;;
43891;SDS011;29555;45.350;5.578;2023-05-18T06:56:43;5.00;;;4.38;;
43891;SDS011;29555;45.350;5.578;2023-05-18T06:59:10;4.97;;;4.47;;
43891;SDS011;29555;45.350;5.578;2023-05-18T07:01:35;7.05;;;3.17;;
43891;SDS011;29555;45.350;5.578;2023-05-18T07:04:02;8.88;;;4.68;;
43891;SDS011;29555;45.350;5.578;2023-05-18T07:06:30;12.27;;;5.72;;
43891;SDS011;29555;45.350;5.578;2023-05-18T07:08:58;5.15;;;4.10;;
43891;SDS011;29555;45.350;5.578;2023-05-18T07:11:23;6.85;;;4.38;;
43891;SDS011;29555;45.350;5.578;2023-05-18T07:13:49;17.27;;;4.70;;
43891;SDS011;29555;45.350;5.578;2023-05-18T07:16:15;5.38;;;3.45;;
43891;SDS011;29555;45.350;5.578;2023-05-18T07:31:10;8.23;;;4.32;;
43891;SDS011;29555;45.350;5.578;2023-05-18T07:36:43;7.13;;;4.30;;
43891;SDS011;29555;45.350;5.578;2023-05-18T07:39:08;6.63;;;4.65;;
43891;SDS011;29555;45.350;5.578;2023-05-18T07:41:41;8.30;;;4.25;;
43891;SDS011;29555;45.350;5.578;2023-05-18T07:44:06;11.70;;;4.60;;
43891;SDS011;29555;45.350;5.578;2023-05-18T07:46:32;7.65;;;5.40;;
43891;SDS011;29555;45.350;5.578;2023-05-18T07:48:57;5.97;;;5.22;;
43891;SDS011;29555;45.350;5.578;2023-05-18T07:51:22;10.07;;;5.63;;
43891;SDS011;29555;45.350;5.578;2023-05-18T07:53:48;7.30;;;5.57;;
43891;SDS011;29555;45.350;5.578;2023-05-18T07:56:13;10.27;;;6.13;;
43891;SDS011;29555;45.350;5.578;2023-05-18T07:58:39;5.95;;;3.50;;
43891;SDS011;29555;45.350;5.578;2023-05-18T08:01:04;13.25;;;5.13;;
43891;SDS011;29555;45.350;5.578;2023-05-18T08:03:29;12.40;;;3.80;;
43891;SDS011;29555;45.350;5.578;2023-05-18T08:05:55;7.38;;;4.30;;
43891;SDS011;29555;45.350;5.578;2023-05-18T08:08:20;6.32;;;4.55;;
43891;SDS011;29555;45.350;5.578;2023-05-18T08:10:46;4.13;;;3.72;;
43891;SDS011;29555;45.350;5.578;2023-05-18T08:13:11;7.13;;;4.95;;
43891;SDS011;29555;45.350;5.578;2023-05-18T08:15:37;17.40;;;5.20;;
43891;SDS011;29555;45.350;5.578;2023-05-18T08:18:04;8.63;;;5.63;;
43891;SDS011;29555;45.350;5.578;2023-05-18T08:20:30;18.83;;;11.15;;
43891;SDS011;29555;45.350;5.578;2023-05-18T08:22:55;17.08;;;10.85;;
43891;SDS011;29555;45.350;5.578;2023-05-18T08:25:21;14.82;;;6.13;;
43891;SDS011;29555;45.350;5.578;2023-05-18T08:27:47;5.35;;;4.25;;
43891;SDS011;29555;45.350;5.578;2023-05-18T08:30:13;6.90;;;5.20;;
43891;SDS011;29555;45.350;5.578;2023-05-18T08:32:39;18.90;;;4.65;;
43891;SDS011;29555;45.350;5.578;2023-05-18T08:35:04;6.57;;;4.80;;
43891;SDS011;29555;45.350;5.578;2023-05-18T08:37:30;9.35;;;5.18;;
43891;SDS011;29555;45.350;5.578;2023-05-18T08:39:56;7.78;;;4.32;;
43891;SDS011;29555;45.350;5.578;2023-05-18T08:42:32;8.57;;;4.38;;
43891;SDS011;29555;45.350;5.578;2023-05-18T08:47:59;6.93;;;3.75;;
43891;SDS011;29555;45.350;5.578;2023-05-18T08:51:09;11.43;;;5.20;;
43891;SDS011;29555;45.350;5.578;2023-05-18T08:53:38;7.63;;;4.18;;
43891;SDS011;29555;45.350;5.578;2023-05-18T08:59:57;5.53;;;4.30;;
43891;SDS011;29555;45.350;5.578;2023-05-18T09:19:50;9.13;;;4.82;;
43891;SDS011;29555;45.350;5.578;2023-05-18T09:26:24;16.60;;;5.93;;
43891;SDS011;29555;45.350;5.578;2023-05-18T09:32:18;10.88;;;5.40;;
43891;SDS011;29555;45.350;5.578;2023-05-18T09:34:44;9.63;;;4.55;;
43891;SDS011;29555;45.350;5.578;2023-05-18T09:37:14;7.53;;;4.90;;
43891;SDS011;29555;45.350;5.578;2023-05-18T09:39:57;5.32;;;4.82;;
43891;SDS011;29555;45.350;5.578;2023-05-18T09:42:35;9.93;;;5.68;;
43891;SDS011;29555;45.350;5.578;2023-05-18T09:45:13;9.80;;;5.82;;
43891;SDS011;29555;45.350;5.578;2023-05-18T09:47:48;7.32;;;5.25;;
43891;SDS011;29555;45.350;5.578;2023-05-18T09:50:17;8.75;;;5.18;;
43891;SDS011;29555;45.350;5.578;2023-05-18T09:52:48;11.35;;;6.25;;
43891;SDS011;29555;45.350;5.578;2023-05-18T09:55:14;8.07;;;6.05;;
43891;SDS011;29555;45.350;5.578;2023-05-18T09:57:50;6.80;;;5.22;;
43891;SDS011;29555;45.350;5.578;2023-05-18T10:00:20;6.25;;;4.63;;
43891;SDS011;29555;45.350;5.578;2023-05-18T10:02:46;13.82;;;6.03;;
43891;SDS011;29555;45.350;5.578;2023-05-18T10:05:17;7.47;;;5.03;;
43891;SDS011;29555;45.350;5.578;2023-05-18T10:07:47;5.38;;;4.88;;
43891;SDS011;29555;45.350;5.578;2023-05-18T10:10:13;8.35;;;6.13;;
43891;SDS011;29555;45.350;5.578;2023-05-18T10:12:41;6.90;;;5.40;;
43891;SDS011;29555;45.350;5.578;2023-05-18T10:15:08;6.78;;;5.57;;
43891;SDS011;29555;45.350;5.578;2023-05-18T10:17:34;12.10;;;6.13;;
43891;SDS011;29555;45.350;5.578;2023-05-18T10:20:03;10.32;;;7.75;;
43891;SDS011;29555;45.350;5.578;2023-05-18T10:22:33;13.13;;;7.00;;
43891;SDS011;29555;45.350;5.578;2023-05-18T10:24:59;11.25;;;6.50;;
43891;SDS011;29555;45.350;5.578;2023-05-18T10:27:28;19.48;;;6.05;;
43891;SDS011;29555;45.350;5.578;2023-05-18T10:29:56;11.30;;;5.68;;
43891;SDS011;29555;45.350;5.578;2023-05-18T10:32:22;11.38;;;6.03;;
43891;SDS011;29555;45.350;5.578;2023-05-18T10:34:52;7.68;;;5.53;;
43891;SDS011;29555;45.350;5.578;2023-05-18T10:37:21;8.15;;;6.30;;
43891;SDS011;29555;45.350;5.578;2023-05-18T10:39:47;6.15;;;5.53;;
43891;SDS011;29555;45.350;5.578;2023-05-18T10:42:18;10.13;;;5.50;;
43891;SDS011;29555;45.350;5.578;2023-05-18T10:44:45;8.18;;;6.13;;
43891;SDS011;29555;45.350;5.578;2023-05-18T10:47:13;9.52;;;5.70;;
43891;SDS011;29555;45.350;5.578;2023-05-18T10:49:41;11.38;;;6.28;;
43891;SDS011;29555;45.350;5.578;2023-05-18T10:52:07;9.90;;;5.93;;
43891;SDS011;29555;45.350;5.578;2023-05-18T10:54:33;10.20;;;6.70;;
43891;SDS011;29555;45.350;5.578;2023-05-18T10:57:00;9.48;;;5.70;;
43891;SDS011;29555;45.350;5.578;2023-05-18T10:59:26;10.05;;;6.75;;
43891;SDS011;29555;45.350;5.578;2023-05-18T11:01:52;12.77;;;5.70;;
43891;SDS011;29555;45.350;5.578;2023-05-18T11:04:25;8.15;;;5.10;;
43891;SDS011;29555;45.350;5.578;2023-05-18T11:06:57;7.05;;;5.53;;
43891;SDS011;29555;45.350;5.578;2023-05-18T11:09:23;8.55;;;6.55;;
43891;SDS011;29555;45.350;5.578;2023-05-18T11:11:55;13.60;;;7.05;;
43891;SDS011;29555;45.350;5.578;2023-05-18T11:14:25;8.20;;;4.85;;
43891;SDS011;29555;45.350;5.578;2023-05-18T11:16:51;8.20;;;5.65;;
43891;SDS011;29555;45.350;5.578;2023-05-18T11:19:17;6.28;;;5.07;;
43891;SDS011;29555;45.350;5.578;2023-05-18T11:26:49;11.07;;;5.25;;
43891;SDS011;29555;45.350;5.578;2023-05-18T11:29:20;7.38;;;4.82;;
43891;SDS011;29555;45.350;5.578;2023-05-18T11:31:59;9.73;;;5.40;;
43891;SDS011;29555;45.350;5.578;2023-05-18T11:37:15;15.80;;;6.75;;
43891;SDS011;29555;45.350;5.578;2023-05-18T11:39:52;9.52;;;5.68;;
43891;SDS011;29555;45.350;5.578;2023-05-18T11:42:19;10.98;;;5.38;;
43891;SDS011;29555;45.350;5.578;2023-05-18T11:44:52;9.90;;;6.05;;
43891;SDS011;29555;45.350;5.578;2023-05-18T11:47:20;10.43;;;6.13;;
43891;SDS011;29555;45.350;5.578;2023-05-18T11:49:47;12.98;;;5.97;;
43891;SDS011;29555;45.350;5.578;2023-05-18T11:52:16;22.85;;;7.00;;
43891;SDS011;29555;45.350;5.578;2023-05-18T11:55:00;10.05;;;6.03;;
43891;SDS011;29555;45.350;5.578;2023-05-18T11:57:26;10.35;;;6.25;;
43891;SDS011;29555;45.350;5.578;2023-05-18T12:00:06;7.45;;;5.45;;
43891;SDS011;29555;45.350;5.578;2023-05-18T12:03:08;14.85;;;6.07;;
43891;SDS011;29555;45.350;5.578;2023-05-18T12:08:58;6.40;;;5.53;;
43891;SDS011;29555;45.350;5.578;2023-05-18T12:11:30;10.23;;;5.85;;
43891;SDS011;29555;45.350;5.578;2023-05-18T12:14:04;6.82;;;4.35;;
43891;SDS011;29555;45.350;5.578;2023-05-18T12:16:37;6.55;;;5.53;;
43891;SDS011;29555;45.350;5.578;2023-05-18T12:19:03;10.23;;;6.18;;
43891;SDS011;29555;45.350;5.578;2023-05-18T12:21:29;9.52;;;6.97;;
43891;SDS011;29555;45.350;5.578;2023-05-18T12:24:01;9.18;;;5.53;;
43891;SDS011;29555;45.350;5.578;2023-05-18T12:26:27;12.02;;;6.80;;
43891;SDS011;29555;45.350;5.578;2023-05-18T12:28:56;7.78;;;5.90;;
43891;SDS011;29555;45.350;5.578;2023-05-18T12:31:24;8.38;;;6.53;;
43891;SDS011;29555;45.350;5.578;2023-05-18T12:33:59;10.23;;;6.00;;
43891;SDS011;29555;45.350;5.578;2023-05-18T12:36:52;12.85;;;6.47;;
43891;SDS011;29555;45.350;5.578;2023-05-18T12:39:18;7.22;;;5.72;;
43891;SDS011;29555;45.350;5.578;2023-05-18T12:41:44;12.90;;;6.25;;
43891;SDS011;29555;45.350;5.578;2023-05-18T12:44:12;10.75;;;6.13;;
43891;SDS011;29555;45.350;5.578;2023-05-18T12:46:39;6.03;;;4.97;;
43891;SDS011;29555;45.350;5.578;2023-05-18T12:49:05;9.60;;;5.88;;
43891;SDS011;29555;45.350;5.578;2023-05-18T12:51:32;12.45;;;5.22;;
43891;SDS011;29555;45.350;5.578;2023-05-18T12:53:59;13.15;;;6.88;;
43891;SDS011;29555;45.350;5.578;2023-05-18T12:56:28;6.88;;;5.13;;
43891;SDS011;29555;45.350;5.578;2023-05-18T12:59:20;7.47;;;5.93;;
43891;SDS011;29555;45.350;5.578;2023-05-18T13:02:03;9.48;;;5.68;;
43891;SDS011;29555;45.350;5.578;2023-05-18T13:11:12;11.73;;;5.20;;
43891;SDS011;29555;45.350;5.578;2023-05-18T13:16:32;9.30;;;4.68;;
43891;SDS011;29555;45.350;5.578;2023-05-18T13:18:59;11.70;;;5.65;;
43891;SDS011;29555;45.350;5.578;2023-05-18T13:21:29;6.68;;;4.53;;
43891;SDS011;29555;45.350;5.578;2023-05-18T13:23:55;12.05;;;5.80;;
43891;SDS011;29555;45.350;5.578;2023-05-18T13:26:20;14.85;;;7.05;;
43891;SDS011;29555;45.350;5.578;2023-05-18T13:28:49;9.27;;;5.40;;
43891;SDS011;29555;45.350;5.578;2023-05-18T13:31:16;6.25;;;4.97;;
43891;SDS011;29555;45.350;5.578;2023-05-18T13:33:41;12.30;;;5.53;;
43891;SDS011;29555;45.350;5.578;2023-05-18T13:36:07;9.55;;;5.60;;
43891;SDS011;29555;45.350;5.578;2023-05-18T13:55:52;12.98;;;6.28;;
43891;SDS011;29555;45.350;5.578;2023-05-18T15:38:16;9.13;;;6.88;;
43891;SDS011;29555;45.350;5.578;2023-05-18T15:53:44;9.95;;;6.15;;
43891;SDS011;29555;45.350;5.578;2023-05-18T15:56:09;16.92;;;6.78;;
43891;SDS011;29555;45.350;5.578;2023-05-18T16:02:11;13.15;;;6.28;;
43891;SDS011;29555;45.350;5.578;2023-05-18T16:13:57;13.88;;;6.47;;
43891;SDS011;29555;45.350;5.578;2023-05-18T16:19:12;12.10;;;5.40;;
43891;SDS011;29555;45.350;5.578;2023-05-18T16:21:38;4.10;;;3.72;;
43891;SDS011;29555;45.350;5.578;2023-05-18T16:24:03;7.00;;;5.88;;
43891;SDS011;29555;45.350;5.578;2023-05-18T16:26:31;9.07;;;5.25;;
43891;SDS011;29555;45.350;5.578;2023-05-18T16:29:00;9.50;;;5.32;;
43891;SDS011;29555;45.350;5.578;2023-05-18T16:31:45;11.52;;;5.97;;
43891;SDS011;29555;45.350;5.578;2023-05-18T16:42:38;6.18;;;4.18;;
43891;SDS011;29555;45.350;5.578;2023-05-18T16:45:13;9.82;;;5.18;;
43891;SDS011;29555;45.350;5.578;2023-05-18T16:58:33;10.88;;;5.45;;
43891;SDS011;29555;45.350;5.578;2023-05-18T17:18:40;6.75;;;4.63;;
43891;SDS011;29555;45.350;5.578;2023-05-18T17:31:06;8.00;;;4.70;;
43891;SDS011;29555;45.350;5.578;2023-05-18T17:43:46;15.18;;;4.80;;
43891;SDS011;29555;45.350;5.578;2023-05-18T17:46:59;6.72;;;4.72;;
43891;SDS011;29555;45.350;5.578;2023-05-18T17:52:50;4.18;;;3.80;;
43891;SDS011;29555;45.350;5.578;2023-05-18T17:58:54;5.68;;;4.85;;
43891;SDS011;29555;45.350;5.578;2023-05-18T18:04:48;11.77;;;6.22;;
43891;SDS011;29555;45.350;5.578;2023-05-18T18:10:19;6.80;;;5.57;;
43891;SDS011;29555;45.350;5.578;2023-05-18T18:13:04;19.35;;;6.78;;
43891;SDS011;29555;45.350;5.578;2023-05-18T18:15:32;5.90;;;4.32;;
43891;SDS011;29555;45.350;5.578;2023-05-18T18:17:57;6.75;;;5.50;;
43891;SDS011;29555;45.350;5.578;2023-05-18T18:20:23;11.93;;;7.68;;
43891;SDS011;29555;45.350;5.578;2023-05-18T18:23:02;14.18;;;8.32;;
43891;SDS011;29555;45.350;5.578;2023-05-18T18:25:39;9.50;;;6.63;;
43891;SDS011;29555;45.350;5.578;2023-05-18T18:28:09;15.35;;;10.02;;
43891;SDS011;29555;45.350;5.578;2023-05-18T18:30:41;18.95;;;11.25;;
43891;SDS011;29555;45.350;5.578;2023-05-18T18:33:08;13.32;;;9.93;;
43891;SDS011;29555;45.350;5.578;2023-05-18T18:35:34;17.02;;;9.02;;
43891;SDS011;29555;45.350;5.578;2023-05-18T18:38:18;12.02;;;7.97;;
43891;SDS011;29555;45.350;5.578;2023-05-18T18:41:22;9.95;;;7.10;;
43891;SDS011;29555;45.350;5.578;2023-05-18T18:43:57;17.52;;;11.20;;
43891;SDS011;29555;45.350;5.578;2023-05-18T18:46:23;17.77;;;10.55;;
43891;SDS011;29555;45.350;5.578;2023-05-18T18:48:49;11.32;;;7.45;;
43891;SDS011;29555;45.350;5.578;2023-05-18T18:51:17;12.07;;;7.30;;
43891;SDS011;29555;45.350;5.578;2023-05-18T18:53:44;9.98;;;6.78;;
43891;SDS011;29555;45.350;5.578;2023-05-18T18:56:10;9.82;;;7.07;;
43891;SDS011;29555;45.350;5.578;2023-05-18T18:58:38;11.18;;;7.25;;
43891;SDS011;29555;45.350;5.578;2023-05-18T19:01:05;20.48;;;6.90;;
43891;SDS011;29555;45.350;5.578;2023-05-18T19:03:41;8.30;;;5.47;;
43891;SDS011;29555;45.350;5.578;2023-05-18T19:06:07;10.30;;;6.15;;
43891;SDS011;29555;45.350;5.578;2023-05-18T19:08:32;11.60;;;6.60;;
43891;SDS011;29555;45.350;5.578;2023-05-18T19:10:57;10.43;;;7.32;;
43891;SDS011;29555;45.350;5.578;2023-05-18T19:13:23;17.00;;;9.60;;
43891;SDS011;29555;45.350;5.578;2023-05-18T19:15:49;18.05;;;11.15;;
43891;SDS011;29555;45.350;5.578;2023-05-18T19:18:15;18.65;;;12.57;;
43891;SDS011;29555;45.350;5.578;2023-05-18T19:28:35;16.33;;;10.27;;
43891;SDS011;29555;45.350;5.578;2023-05-18T19:31:00;24.60;;;13.68;;
43891;SDS011;29555;45.350;5.578;2023-05-18T19:33:37;24.52;;;17.27;;
43891;SDS011;29555;45.350;5.578;2023-05-18T19:36:09;23.98;;;16.17;;
43891;SDS011;29555;45.350;5.578;2023-05-18T19:38:37;18.42;;;12.65;;
43891;SDS011;29555;45.350;5.578;2023-05-18T19:44:04;20.52;;;12.48;;
43891;SDS011;29555;45.350;5.578;2023-05-18T19:46:30;13.85;;;10.40;;
43891;SDS011;29555;45.350;5.578;2023-05-18T19:48:55;14.82;;;10.13;;
43891;SDS011;29555;45.350;5.578;2023-05-18T19:51:51;13.93;;;10.32;;
43891;SDS011;29555;45.350;5.578;2023-05-18T19:58:18;14.18;;;9.75;;